Time;durP1;ratioP1;P1;durP2;ratioP2;P2;SDS_P1;SDS_P2;PMS_P1;PMS_P2;Temp;Humidity;BMP_temperature;BMP_pressure;BME280_temperature;BME280_humidity;BME280_pressure;Samples;Min_cycle;Max_cycle;Signal;HPM_P1;HPM_P2
2024/03/03 00:00:48;;;;;;;38.63;19.05;;;;;;;9.56;100.00;99636.16;5094536;28;20210;-66
2024/03/03 00:03:13;;;;;;;40.38;19.55;;;;;;;9.59;100.00;99636.69;5095490;28;20070;-64
2024/03/03 00:05:39;;;;;;;40.60;19.17;;;;;;;9.67;100.00;99649.09;5093986;28;20341;-66
2024/03/03 00:08:05;;;;;;;40.30;18.63;;;;;;;9.80;100.00;99646.84;5096648;28;20105;-66
2024/03/03 00:10:30;;;;;;;36.53;18.63;;;;;;;9.94;100.00;99650.69;5094302;28;20083;-65
2024/03/03 00:12:55;;;;;;;34.05;17.58;;;;;;;10.00;100.00;99647.41;5096174;28;20245;-66
2024/03/03 00:15:21;;;;;;;36.30;17.98;;;;;;;10.07;100.00;99653.72;5094807;28;20050;-67
2024/03/03 00:17:46;;;;;;;35.35;17.92;;;;;;;10.13;100.00;99652.25;5095704;28;20047;-66
2024/03/03 00:20:12;;;;;;;35.00;18.23;;;;;;;10.10;100.00;99634.03;5094562;28;20032;-66
2024/03/03 00:22:38;;;;;;;35.25;19.15;;;;;;;10.30;100.00;99648.69;5094106;28;20044;-66
2024/03/03 00:25:04;;;;;;;43.28;19.92;;;;;;;10.40;100.00;99648.53;5094988;28;20024;-66
2024/03/03 00:27:30;;;;;;;37.92;18.38;;;;;;;10.50;100.00;99646.59;5095278;28;20044;-66
2024/03/03 00:29:56;;;;;;;41.90;19.17;;;;;;;10.55;100.00;99636.34;5094019;28;21036;-65
2024/03/03 00:32:21;;;;;;;43.40;20.63;;;;;;;10.61;100.00;99634.84;5094411;28;20225;-64
2024/03/03 00:34:47;;;;;;;43.33;21.35;;;;;;;10.66;100.00;99628.06;5094295;28;20036;-67
2024/03/03 00:37:13;;;;;;;40.53;19.73;;;;;;;10.68;100.00;99631.38;5095490;28;20057;-66
2024/03/03 00:39:42;;;;;;;36.75;18.67;;;;;;;10.60;100.00;99627.91;5096246;28;20334;-67
2024/03/03 00:42:07;;;;;;;31.25;16.58;;;;;;;10.57;100.00;99629.06;5096044;28;20035;-64
2024/03/03 00:44:33;;;;;;;34.20;16.42;;;;;;;10.50;100.00;99622.75;5096779;28;20044;-64
2024/03/03 00:46:58;;;;;;;32.88;16.70;;;;;;;10.46;100.00;99624.09;5093122;28;20040;-66
2024/03/03 00:49:24;;;;;;;33.33;17.25;;;;;;;10.41;100.00;99621.94;5095653;28;20055;-66
2024/03/03 00:51:49;;;;;;;36.65;19.27;;;;;;;10.39;100.00;99621.22;5094071;28;20040;-66
2024/03/03 00:54:15;;;;;;;37.63;19.55;;;;;;;10.42;100.00;99625.41;5095257;28;20031;-65
2024/03/03 00:56:41;;;;;;;36.08;18.25;;;;;;;10.48;100.00;99617.63;5094315;28;20043;-64
2024/03/03 00:59:07;;;;;;;32.17;18.55;;;;;;;10.56;100.00;99622.09;5094011;28;21165;-64
2024/03/03 01:01:32;;;;;;;35.83;18.65;;;;;;;10.62;100.00;99618.78;5094670;28;20051;-65
2024/03/03 01:03:58;;;;;;;39.13;19.70;;;;;;;10.67;100.00;99615.66;5098431;28;20040;-65
2024/03/03 01:06:23;;;;;;;37.03;20.92;;;;;;;10.68;100.00;99614.66;5098189;28;20036;-66
2024/03/03 01:08:49;;;;;;;38.83;20.98;;;;;;;10.72;100.00;99611.50;5099430;28;20044;-66
2024/03/03 01:11:14;;;;;;;40.78;22.35;;;;;;;10.79;100.00;99606.38;5098676;28;20333;-66
2024/03/03 01:13:40;;;;;;;38.75;20.08;;;;;;;10.85;100.00;99609.19;5099447;28;20044;-66
2024/03/03 01:16:05;;;;;;;38.40;19.08;;;;;;;10.88;100.00;99611.50;5100283;28;20361;-66
2024/03/03 01:18:31;;;;;;;38.03;19.17;;;;;;;10.90;100.00;99602.56;5098282;28;20047;-66
2024/03/03 01:20:56;;;;;;;35.53;19.40;;;;;;;10.92;100.00;99616.47;5100241;28;20257;-64
2024/03/03 01:23:22;;;;;;;38.28;19.55;;;;;;;10.94;100.00;99603.88;5097506;28;20047;-64
2024/03/03 01:25:49;;;;;;;39.63;19.95;;;;;;;10.93;100.00;99604.88;5098787;28;20237;-65
2024/03/03 01:28:15;;;;;;;37.13;17.80;;;;;;;10.88;100.00;99600.91;5098407;28;20435;-65
2024/03/03 01:30:41;;;;;;;35.58;18.65;;;;;;;10.93;100.00;99603.03;5099407;28;20066;-64
2024/03/03 01:33:06;;;;;;;35.75;18.95;;;;;;;10.93;100.00;99599.56;5097209;28;20353;-66
2024/03/03 01:35:32;;;;;;;40.88;19.48;;;;;;;10.90;100.00;99595.44;5099462;28;20346;-66
2024/03/03 01:37:57;;;;;;;37.83;19.50;;;;;;;10.93;100.00;99599.56;5098483;28;20072;-66
2024/03/03 01:40:23;;;;;;;34.08;18.17;;;;;;;10.94;100.00;99603.88;5098564;28;20250;-65
2024/03/03 01:42:54;;;;;;;35.75;18.02;;;;;;;10.92;100.00;99609.34;5098387;28;20065;-66
2024/03/03 01:45:24;;;;;;;38.22;19.15;;;;;;;10.87;100.00;99599.25;5098875;28;20031;-66
2024/03/03 01:47:50;;;;;;;35.08;18.20;;;;;;;10.86;100.00;99591.47;5099187;28;20222;-66
2024/03/03 01:50:16;;;;;;;38.55;19.38;;;;;;;10.79;100.00;99598.44;5098579;28;20027;-66
2024/03/03 01:52:44;;;;;;;37.38;18.52;;;;;;;10.76;100.00;99604.06;5099457;28;20039;-66
2024/03/03 01:55:10;;;;;;;42.15;20.50;;;;;;;10.59;100.00;99595.28;5098348;28;20028;-65
2024/03/03 01:57:36;;;;;;;34.67;17.95;;;;;;;10.62;100.00;99594.97;5099111;28;20051;-66
2024/03/03 02:00:05;;;;;;;33.20;18.08;;;;;;;10.59;100.00;99600.59;5096332;28;20229;-66
2024/03/03 02:02:31;;;;;;;38.20;19.13;;;;;;;10.67;100.00;99594.47;5100162;28;20032;-65
2024/03/03 02:04:58;;;;;;;41.88;20.05;;;;;;;10.71;100.00;99595.78;5097394;28;20038;-66
2024/03/03 02:07:25;;;;;;;35.28;19.65;;;;;;;10.78;100.00;99602.91;5097988;28;20062;-65
2024/03/03 02:09:51;;;;;;;36.50;19.48;;;;;;;10.76;100.00;99607.53;5096938;28;20378;-66
2024/03/03 02:12:17;;;;;;;40.15;19.45;;;;;;;10.72;100.00;99603.56;5098563;28;20047;-66
2024/03/03 02:14:42;;;;;;;38.90;19.08;;;;;;;10.79;100.00;99611.66;5096232;28;20218;-64
2024/03/03 02:17:08;;;;;;;36.10;18.75;;;;;;;10.77;100.00;99614.47;5097642;28;20307;-66
2024/03/03 02:19:36;;;;;;;40.25;20.70;;;;;;;10.69;100.00;99609.19;5097359;28;20040;-66
2024/03/03 02:22:01;;;;;;;37.00;18.75;;;;;;;10.64;100.00;99606.22;5097188;28;20035;-66
2024/03/03 02:24:27;;;;;;;33.90;18.52;;;;;;;10.68;100.00;99612.84;5096054;28;20044;-65
2024/03/03 02:26:53;;;;;;;39.22;18.10;;;;;;;10.63;100.00;99611.69;5097271;28;20229;-65
2024/03/03 02:29:21;;;;;;;36.88;19.15;;;;;;;10.53;100.00;99610.03;5097392;28;20043;-66
2024/03/03 02:31:47;;;;;;;40.30;20.25;;;;;;;10.49;100.00;99607.88;5097398;28;20040;-66
2024/03/03 02:34:13;;;;;;;36.30;18.65;;;;;;;10.51;100.00;99612.00;5098884;28;20036;-65
2024/03/03 02:36:38;;;;;;;39.38;19.27;;;;;;;10.62;100.00;99613.50;5097565;28;20345;-65
2024/03/03 02:39:04;;;;;;;36.25;19.50;;;;;;;10.72;100.00;99615.97;5098772;28;20354;-66
2024/03/03 02:41:29;;;;;;;36.25;18.35;;;;;;;10.78;100.00;99620.63;5096424;28;20074;-65
2024/03/03 02:43:55;;;;;;;42.28;20.38;;;;;;;10.81;100.00;99623.75;5097969;28;20341;-65
2024/03/03 02:46:20;;;;;;;38.10;19.55;;;;;;;10.81;100.00;99625.56;5096813;28;20040;-65
2024/03/03 02:48:46;;;;;;;39.45;20.33;;;;;;;10.86;100.00;99623.25;5097145;28;20325;-66
2024/03/03 02:51:11;;;;;;;40.53;20.05;;;;;;;10.88;100.00;99619.44;5096530;28;20028;-65
2024/03/03 02:53:37;;;;;;;37.53;19.25;;;;;;;10.85;100.00;99624.25;5096991;28;20107;-65
2024/03/03 02:56:04;;;;;;;38.47;19.63;;;;;;;10.91;100.00;99628.06;5097849;28;20023;-66
2024/03/03 02:58:30;;;;;;;37.95;19.25;;;;;;;10.95;100.00;99627.56;5097283;28;20044;-66
2024/03/03 03:00:55;;;;;;;41.22;19.50;;;;;;;10.97;100.00;99633.50;5097562;28;20036;-66
2024/03/03 03:03:21;;;;;;;40.33;18.98;;;;;;;10.99;100.00;99639.47;5097262;28;20031;-66
2024/03/03 03:05:46;;;;;;;40.38;18.63;;;;;;;10.94;100.00;99631.19;5096668;28;20040;-65
2024/03/03 03:08:12;;;;;;;39.47;19.20;;;;;;;10.92;100.00;99637.66;5097578;28;20372;-66
2024/03/03 03:10:37;;;;;;;39.45;19.60;;;;;;;10.88;100.00;99645.94;5098785;28;20031;-66
2024/03/03 03:13:03;;;;;;;37.95;20.63;;;;;;;10.84;100.00;99636.66;5096330;28;20028;-65
2024/03/03 03:15:32;;;;;;;38.42;19.50;;;;;;;10.87;100.00;99641.63;5097921;28;20061;-66
2024/03/03 03:17:57;;;;;;;40.10;18.70;;;;;;;10.93;100.00;99637.50;5096857;28;20063;-66
2024/03/03 03:20:22;;;;;;;41.17;20.27;;;;;;;10.99;100.00;99639.47;5097812;28;20043;-66
2024/03/03 03:22:48;;;;;;;37.67;20.35;;;;;;;10.98;100.00;99642.28;5095875;28;20032;-65
2024/03/03 03:25:13;;;;;;;33.80;17.88;;;;;;;11.01;100.00;99645.44;5097213;28;20036;-66
2024/03/03 03:27:40;;;;;;;40.58;19.83;;;;;;;11.03;100.00;99645.25;5097250;28;20067;-64
2024/03/03 03:30:06;;;;;;;35.28;19.45;;;;;;;11.01;100.00;99642.78;5097071;28;20253;-66
2024/03/03 03:32:32;;;;;;;38.33;17.83;;;;;;;10.99;100.00;99639.47;5096108;28;20032;-64
2024/03/03 03:34:57;;;;;;;35.80;18.98;;;;;;;11.03;100.00;99634.66;5095963;28;20035;-65
2024/03/03 03:37:23;;;;;;;38.40;21.45;;;;;;;11.09;100.00;99648.06;5096481;28;20101;-65
2024/03/03 03:39:48;;;;;;;39.25;20.67;;;;;;;11.14;100.00;99652.88;5096374;28;20051;-65
2024/03/03 03:42:14;;;;;;;35.17;19.58;;;;;;;11.17;100.00;99658.66;5097400;28;20044;-65
2024/03/03 03:44:39;;;;;;;38.80;20.42;;;;;;;11.20;100.00;99658.31;5096175;28;20583;-66
2024/03/03 03:47:05;;;;;;;38.17;20.60;;;;;;;11.23;100.00;99656.31;5096926;28;20039;-65
2024/03/03 03:49:30;;;;;;;39.08;18.85;;;;;;;11.20;100.00;99660.97;5093402;28;20085;-66
2024/03/03 03:51:56;;;;;;;37.08;19.52;;;;;;;11.17;100.00;99665.78;5096420;28;20032;-64
2024/03/03 03:54:22;;;;;;;40.38;20.23;;;;;;;11.18;100.00;99660.31;5095033;28;20067;-64
2024/03/03 03:56:47;;;;;;;35.85;19.27;;;;;;;11.21;100.00;99667.09;5096534;28;20035;-65
2024/03/03 03:59:13;;;;;;;35.70;18.38;;;;;;;11.20;100.00;99666.28;5095926;28;20036;-64
2024/03/03 04:01:38;;;;;;;33.05;19.05;;;;;;;11.24;100.00;99663.28;5095495;28;20043;-64
2024/03/03 04:04:04;;;;;;;36.70;19.10;;;;;;;11.27;100.00;99657.66;5095879;28;20059;-65
2024/03/03 04:06:30;;;;;;;36.63;19.40;;;;;;;11.10;100.00;99667.44;5094760;28;20040;-66
2024/03/03 04:08:55;;;;;;;36.70;18.85;;;;;;;11.09;100.00;99671.91;5096628;28;20070;-65
2024/03/03 04:11:21;;;;;;;41.08;19.60;;;;;;;11.03;100.00;99674.41;5095289;28;20268;-66
2024/03/03 04:13:48;;;;;;;41.38;20.20;;;;;;;11.00;100.00;99672.91;5095802;28;20043;-66
2024/03/03 04:16:14;;;;;;;39.85;19.33;;;;;;;11.01;100.00;99663.97;5095013;28;20024;-66
2024/03/03 04:18:39;;;;;;;36.40;19.48;;;;;;;11.03;100.00;99671.75;5095864;28;20043;-66
2024/03/03 04:21:04;;;;;;;40.75;19.88;;;;;;;10.87;100.00;99669.94;5094031;28;20036;-64
2024/03/03 04:23:31;;;;;;;33.03;19.48;;;;;;;10.79;100.00;99675.25;5096232;28;20314;-65
2024/03/03 04:25:56;;;;;;;39.05;19.58;;;;;;;10.60;100.00;99675.56;5094116;28;20318;-65
2024/03/03 04:28:21;;;;;;;37.55;18.70;;;;;;;10.53;100.00;99678.03;5095634;28;20040;-65
2024/03/03 04:30:47;;;;;;;39.47;19.75;;;;;;;10.64;100.00;99679.53;5095280;28;20102;-66
2024/03/03 04:33:12;;;;;;;38.15;19.90;;;;;;;10.73;100.00;99682.03;5095520;28;20040;-67
2024/03/03 04:35:42;;;;;;;39.42;20.52;;;;;;;10.81;100.00;99683.84;5094719;28;20024;-64
2024/03/03 04:38:08;;;;;;;45.10;19.90;;;;;;;10.83;100.00;99677.38;5093983;28;20047;-66
2024/03/03 04:40:33;;;;;;;38.72;19.85;;;;;;;10.86;100.00;99674.41;5096193;28;20333;-66
2024/03/03 04:42:58;;;;;;;35.08;18.83;;;;;;;10.74;100.00;99675.72;5095553;28;20183;-65
2024/03/03 04:45:24;;;;;;;38.72;19.45;;;;;;;10.65;100.00;99679.38;5095864;28;20031;-65
2024/03/03 04:47:50;;;;;;;35.72;18.75;;;;;;;10.75;100.00;99676.56;5094709;28;20040;-65
2024/03/03 04:50:15;;;;;;;39.72;20.60;;;;;;;10.82;100.00;99677.56;5094454;28;20306;-66
2024/03/03 04:52:41;;;;;;;35.60;18.88;;;;;;;10.60;100.00;99681.69;5094347;28;20352;-66
2024/03/03 04:55:07;;;;;;;40.95;19.95;;;;;;;10.14;100.00;99667.97;5095712;28;20059;-66
2024/03/03 04:57:33;;;;;;;46.58;22.95;;;;;;;10.07;100.00;99680.16;5094016;28;20031;-66
2024/03/03 04:59:58;;;;;;;52.42;28.13;;;;;;;9.91;100.00;99682.75;5096456;28;20032;-65
2024/03/03 05:02:24;;;;;;;57.95;31.50;;;;;;;9.60;100.00;99674.53;5094733;28;20043;-66
2024/03/03 05:04:49;;;;;;;51.30;27.40;;;;;;;9.43;100.00;99678.06;5096667;28;20085;-65
2024/03/03 05:07:16;;;;;;;52.70;27.13;;;;;;;9.32;100.00;99678.28;5094594;28;20213;-66
2024/03/03 05:09:41;;;;;;;51.45;26.38;;;;;;;9.49;100.00;99677.44;5095757;28;20107;-66
2024/03/03 05:12:07;;;;;;;48.38;25.42;;;;;;;9.64;100.00;99681.16;5094724;28;20043;-67
2024/03/03 05:14:33;;;;;;;46.45;25.33;;;;;;;9.53;100.00;99694.63;5095670;28;20243;-64
2024/03/03 05:16:58;;;;;;;51.40;24.98;;;;;;;9.50;100.00;99687.03;5094666;28;20024;-66
2024/03/03 05:19:24;;;;;;;50.60;26.70;;;;;;;9.56;100.00;99689.88;5094754;28;20207;-64
2024/03/03 05:21:51;;;;;;;47.55;22.52;;;;;;;9.46;100.00;99686.50;5095725;28;20081;-65
2024/03/03 05:24:16;;;;;;;42.72;21.58;;;;;;;9.47;100.00;99684.69;5094592;28;20365;-64
2024/03/03 05:26:43;;;;;;;48.20;21.92;;;;;;;9.25;100.00;99694.75;5095839;28;20315;-66
2024/03/03 05:29:09;;;;;;;42.17;21.42;;;;;;;9.16;100.00;99695.69;5095200;28;20032;-64
2024/03/03 05:31:41;;;;;;;48.60;21.77;;;;;;;9.09;100.00;99694.66;5096440;28;20028;-67
2024/03/03 05:34:12;;;;;;;43.63;20.70;;;;;;;8.97;100.00;99701.16;5093858;28;20042;-64
2024/03/03 05:36:41;;;;;;;41.20;20.23;;;;;;;8.78;100.00;99703.97;5095783;28;20115;-66
2024/03/03 05:39:07;;;;;;;43.28;20.25;;;;;;;8.80;100.00;99700.19;5094175;28;20055;-66
2024/03/03 05:41:33;;;;;;;48.08;21.77;;;;;;;8.60;100.00;99688.97;5095942;28;20107;-64
2024/03/03 05:43:59;;;;;;;47.25;23.05;;;;;;;8.82;100.00;99697.41;5094392;28;20066;-64
2024/03/03 05:46:24;;;;;;;47.80;24.73;;;;;;;8.99;100.00;99701.00;5095140;28;20095;-65
2024/03/03 05:48:50;;;;;;;46.33;24.60;;;;;;;8.89;100.00;99707.19;5094096;28;20036;-64
2024/03/03 05:51:16;;;;;;;50.95;23.92;;;;;;;9.02;100.00;99703.34;5098574;28;20035;-65
2024/03/03 05:53:42;;;;;;;55.00;25.17;;;;;;;9.08;100.00;99697.44;5099109;28;20032;-64
2024/03/03 05:56:07;;;;;;;53.13;25.98;;;;;;;9.21;100.00;99709.25;5098350;28;20349;-66
2024/03/03 05:58:33;;;;;;;57.90;26.38;;;;;;;9.29;100.00;99705.84;5098222;28;20047;-65
2024/03/03 06:00:59;;;;;;;60.60;26.83;;;;;;;9.16;100.00;99711.53;5097998;28;20249;-64
2024/03/03 06:03:25;;;;;;;52.05;25.55;;;;;;;9.25;100.00;99707.97;5098378;28;20123;-66
2024/03/03 06:05:50;;;;;;;60.38;28.67;;;;;;;9.18;100.00;99714.03;5097422;28;20274;-66
2024/03/03 06:08:16;;;;;;;55.08;23.55;;;;;;;9.24;100.00;99714.25;5098423;28;20051;-65
2024/03/03 06:10:42;;;;;;;57.45;25.52;;;;;;;9.24;100.00;99719.53;5097974;28;20028;-65
2024/03/03 06:13:07;;;;;;;53.40;25.33;;;;;;;9.27;100.00;99716.56;5099339;28;20382;-64
2024/03/03 06:15:33;;;;;;;46.72;24.38;;;;;;;9.36;100.00;99714.81;5098137;28;20077;-65
2024/03/03 06:17:58;;;;;;;48.50;23.20;;;;;;;9.41;100.00;99715.22;5098000;28;20226;-66
2024/03/03 06:20:24;;;;;;;53.03;24.98;;;;;;;9.36;100.00;99721.91;5096293;28;20036;-64
2024/03/03 06:22:49;;;;;;;49.63;23.63;;;;;;;9.17;100.00;99697.34;5098123;28;20226;-66
2024/03/03 06:25:15;;;;;;;52.08;25.08;;;;;;;9.25;100.00;99729.09;5098504;28;20032;-64
2024/03/03 06:27:40;;;;;;;53.80;24.35;;;;;;;9.34;100.00;99723.88;5098510;28;20321;-66
2024/03/03 06:30:09;;;;;;;54.25;25.20;;;;;;;9.27;100.00;99729.78;5097020;28;20055;-66
2024/03/03 06:32:34;;;;;;;54.10;26.13;;;;;;;9.19;100.00;99732.38;5097155;28;20264;-66
2024/03/03 06:35:00;;;;;;;49.90;25.92;;;;;;;9.34;100.00;99729.16;5097120;28;20277;-67
2024/03/03 06:37:26;;;;;;;62.38;27.05;;;;;;;9.41;100.00;99727.59;5096637;28;20044;-66
2024/03/03 06:39:51;;;;;;;56.03;26.33;;;;;;;9.49;100.00;99720.56;5098041;28;20349;-66
2024/03/03 06:42:17;;;;;;;58.58;28.90;;;;;;;9.56;100.00;99720.75;5097461;28;20032;-66
2024/03/03 06:44:42;;;;;;;55.75;27.20;;;;;;;9.40;100.00;99732.06;5097589;28;20031;-66
2024/03/03 06:47:08;;;;;;;59.90;26.23;;;;;;;9.64;100.00;99723.44;5097633;28;20044;-66
2024/03/03 06:49:34;;;;;;;63.60;27.10;;;;;;;9.73;100.00;99721.69;5099011;28;20036;-66
2024/03/03 06:51:59;;;;;;;71.68;29.40;;;;;;;9.83;100.00;99728.50;5096411;28;20325;-65
2024/03/03 06:54:25;;;;;;;59.45;28.15;;;;;;;9.95;100.00;99723.78;5098069;28;20040;-66
2024/03/03 06:56:50;;;;;;;68.82;26.73;;;;;;;10.06;100.00;99723.50;5096795;28;20332;-66
2024/03/03 06:59:16;;;;;;;71.63;27.75;;;;;;;10.13;100.00;99724.50;5098319;28;20361;-65
2024/03/03 07:01:41;;;;;;;73.97;29.30;;;;;;;9.92;100.00;99727.56;5096749;28;20218;-66
2024/03/03 07:04:25;;;;;;;71.78;26.38;;;;;;;9.82;100.00;99732.13;5096977;28;20032;-65
2024/03/03 07:06:54;;;;;;;79.53;28.00;;;;;;;9.86;100.00;99733.47;5097074;28;20042;-66
2024/03/03 07:09:23;;;;;;;76.15;27.42;;;;;;;10.00;100.00;99736.53;5098345;28;20040;-66
2024/03/03 07:11:52;;;;;;;80.78;31.00;;;;;;;9.88;100.00;99735.97;5096640;28;20072;-64
2024/03/03 07:14:18;;;;;;;81.55;29.50;;;;;;;10.01;100.00;99741.66;5096373;28;20107;-66
2024/03/03 07:16:44;;;;;;;82.82;29.63;;;;;;;10.19;100.00;99738.91;5096362;28;20040;-65
2024/03/03 07:19:10;;;;;;;82.85;31.58;;;;;;;10.22;100.00;99736.81;5095708;28;20032;-65
2024/03/03 07:21:35;;;;;;;74.13;31.65;;;;;;;10.24;100.00;99736.66;5096229;28;20073;-66
2024/03/03 07:24:01;;;;;;;88.95;32.92;;;;;;;10.23;100.00;99745.56;5095780;28;20127;-65
2024/03/03 07:26:26;;;;;;;89.53;32.53;;;;;;;10.42;100.00;99744.50;5096420;28;20028;-65
2024/03/03 07:28:52;;;;;;;89.15;32.50;;;;;;;10.53;100.00;99744.22;5095940;28;20043;-65
2024/03/03 07:31:18;;;;;;;85.47;33.72;;;;;;;10.69;100.00;99741.59;5096695;28;20060;-66
2024/03/03 07:33:43;;;;;;;90.50;32.70;;;;;;;10.70;100.00;99751.19;5096264;28;20043;-65
2024/03/03 07:36:09;;;;;;;85.75;31.15;;;;;;;10.83;100.00;99745.44;5097045;28;20032;-66
2024/03/03 07:38:35;;;;;;;89.35;34.90;;;;;;;10.79;100.00;99747.56;5096574;28;20032;-66
2024/03/03 07:41:01;;;;;;;110.28;38.97;;;;;;;10.57;100.00;99750.84;5097701;28;20039;-66
2024/03/03 07:43:27;;;;;;;97.80;35.80;;;;;;;10.69;100.00;99756.66;5096111;28;20402;-65
2024/03/03 07:45:53;;;;;;;90.55;34.88;;;;;;;10.70;100.00;99755.66;5097489;28;20030;-64
2024/03/03 07:48:19;;;;;;;89.97;34.80;;;;;;;10.70;100.00;99759.16;5096321;28;20236;-65
2024/03/03 07:50:44;;;;;;;93.30;34.40;;;;;;;10.62;100.00;99748.53;5094939;28;20224;-65
2024/03/03 07:53:10;;;;;;;101.80;36.60;;;;;;;10.48;100.00;99751.81;5094770;28;20039;-66
2024/03/03 07:55:36;;;;;;;94.72;35.65;;;;;;;10.67;100.00;99750.69;5095229;28;20028;-66
2024/03/03 07:58:01;;;;;;;93.43;34.67;;;;;;;10.59;100.00;99755.97;5095290;28;20080;-66
2024/03/03 08:00:33;;;;;;;93.35;36.58;;;;;;;10.51;100.00;99754.97;5095622;28;20063;-66
2024/03/03 08:03:04;;;;;;;93.97;35.03;;;;;;;10.62;100.00;99753.00;5096225;28;20099;-66
2024/03/03 08:05:33;;;;;;;94.95;34.85;;;;;;;10.57;100.00;99753.50;5096828;28;20028;-66
2024/03/03 08:07:59;;;;;;;86.05;32.75;;;;;;;10.58;100.00;99754.31;5096825;28;20036;-65
2024/03/03 08:10:25;;;;;;;88.70;33.85;;;;;;;10.83;100.00;99746.25;5094653;28;20103;-66
2024/03/03 08:12:51;;;;;;;79.43;32.58;;;;;;;11.07;100.00;99745.44;5095651;28;20036;-66
2024/03/03 08:15:16;;;;;;;85.70;32.10;;;;;;;11.23;100.00;99747.28;5093884;28;20063;-64
2024/03/03 08:17:42;;;;;;;89.95;31.55;;;;;;;11.31;100.00;99746.44;5096722;28;20032;-65
2024/03/03 08:20:10;;;;;;;83.82;31.75;;;;;;;11.11;100.00;99749.44;5096759;28;20097;-65
2024/03/03 08:22:37;;;;;;;84.47;30.63;;;;;;;10.92;100.00;99752.41;5095979;28;20035;-65
2024/03/03 08:25:05;;;;;;;69.25;28.45;;;;;;;10.93;100.00;99756.69;5096503;28;20063;-66
2024/03/03 08:27:31;;;;;;;85.47;31.83;;;;;;;10.66;100.00;99759.63;5096707;28;20107;-66
2024/03/03 08:29:57;;;;;;;86.57;33.72;;;;;;;10.82;100.00;99757.00;5096464;28;20108;-67
2024/03/03 08:32:23;;;;;;;93.90;33.78;;;;;;;10.67;100.00;99758.66;5096862;28;20028;-65
2024/03/03 08:34:49;;;;;;;80.15;31.20;;;;;;;11.01;100.00;99755.88;5097237;28;20471;-66
2024/03/03 08:37:15;;;;;;;84.70;32.08;;;;;;;11.09;100.00;99766.47;5095653;28;20328;-66
2024/03/03 08:39:40;;;;;;;83.30;32.90;;;;;;;11.29;100.00;99759.84;5094841;28;20031;-67
2024/03/03 08:42:06;;;;;;;80.63;32.72;;;;;;;11.43;100.00;99759.19;5096214;28;20133;-65
2024/03/03 08:44:31;;;;;;;76.05;31.95;;;;;;;11.39;100.00;99765.00;5096184;28;20055;-65
2024/03/03 08:46:57;;;;;;;78.78;34.28;;;;;;;11.41;100.00;99766.47;5095537;28;20047;-65
2024/03/03 08:49:22;;;;;;;85.15;33.47;;;;;;;11.32;100.00;99762.19;5095382;28;20327;-66
2024/03/03 08:51:48;;;;;;;84.32;33.17;;;;;;;11.36;100.00;99765.31;5096296;28;20039;-65
2024/03/03 08:54:13;;;;;;;78.80;32.78;;;;;;;11.42;100.00;99760.19;5096597;28;20043;-66
2024/03/03 08:56:39;;;;;;;82.28;32.38;;;;;;;11.59;100.00;99757.53;5096094;28;20081;-66
2024/03/03 08:59:05;;;;;;;75.07;30.23;;;;;;;11.51;100.00;99759.22;5095914;28;20069;-66
2024/03/03 09:01:30;;;;;;;66.05;30.05;;;;;;;11.69;100.00;99760.84;5095604;28;20032;-65
2024/03/03 09:03:56;;;;;;;65.88;29.10;;;;;;;11.74;100.00;99759.34;5095209;28;20356;-67
2024/03/03 09:06:21;;;;;;;66.20;29.13;;;;;;;11.74;100.00;99762.00;5095183;28;20241;-66
2024/03/03 09:08:47;;;;;;;63.75;28.80;;;;;;;11.63;100.00;99754.38;5095251;28;20051;-64
2024/03/03 09:11:13;;;;;;;61.40;27.88;;;;;;;11.62;100.00;99754.56;5095643;28;20354;-66
2024/03/03 09:13:39;;;;;;;60.55;28.55;;;;;;;11.70;100.00;99758.03;5095166;28;20032;-65
2024/03/03 09:16:05;;;;;;;65.38;28.52;;;;;;;11.83;100.00;99755.69;5095867;28;20040;-64
2024/03/03 09:18:30;;;;;;;69.35;28.85;;;;;;;11.87;100.00;99758.00;5095611;28;20044;-65
2024/03/03 09:20:56;;;;;;;51.50;25.17;;;;;;;11.96;100.00;99757.00;5095256;28;20051;-66
2024/03/03 09:23:21;;;;;;;61.88;26.20;;;;;;;12.15;100.00;99761.91;5096546;28;20036;-65
2024/03/03 09:25:47;;;;;;;56.75;26.73;;;;;;;12.13;100.00;99753.28;5100142;28;20310;-68
2024/03/03 09:28:13;;;;;;;51.55;23.25;;;;;;;12.15;100.00;99753.94;5099766;28;20250;-66
2024/03/03 09:30:39;;;;;;;49.92;23.80;;;;;;;12.33;100.00;99751.03;5100290;28;20298;-65
2024/03/03 09:33:04;;;;;;;50.30;23.02;;;;;;;12.40;100.00;99752.00;5100215;28;20067;-66
2024/03/03 09:35:30;;;;;;;46.08;23.40;;;;;;;12.45;100.00;99753.13;5100159;28;20224;-65
2024/03/03 09:37:55;;;;;;;41.53;20.40;;;;;;;12.60;100.00;99749.78;5099230;28;20040;-65
2024/03/03 09:40:22;;;;;;;40.10;20.67;;;;;;;12.72;100.00;99749.19;5099471;28;20051;-64
2024/03/03 09:42:49;;;;;;;43.92;21.80;;;;;;;12.82;100.00;99753.47;5098911;28;20207;-66
2024/03/03 09:45:19;;;;;;;47.47;22.00;;;;;;;12.93;100.00;99750.38;5099255;28;20195;-65
2024/03/03 09:47:46;;;;;;;46.80;23.48;;;;;;;12.98;100.00;99751.50;5098479;28;20055;-67
2024/03/03 09:50:14;;;;;;;41.38;21.40;;;;;;;12.87;100.00;99751.09;5099479;28;20062;-65
2024/03/03 09:52:44;;;;;;;50.33;23.88;;;;;;;12.86;100.00;99744.13;5098836;28;20099;-67
2024/03/03 09:55:10;;;;;;;39.30;21.33;;;;;;;12.95;100.00;99746.56;5099232;28;20028;-66
2024/03/03 09:57:38;;;;;;;43.53;23.00;;;;;;;13.06;100.00;99745.31;5099901;28;20069;-67
2024/03/03 10:00:06;;;;;;;41.78;21.05;;;;;;;13.04;100.00;99749.97;5099862;28;20459;-66
2024/03/03 10:02:33;;;;;;;41.38;21.83;;;;;;;12.74;100.00;99747.19;5099526;28;20055;-66
2024/03/03 10:07:59;;;;;;;34.58;19.77;;;;;;;12.87;100.00;99743.13;4914896;26;20048;-61
2024/03/03 10:10:28;;;;;;;37.75;19.63;;;;;;;12.85;100.00;99742.47;5098525;28;20032;-63
2024/03/03 10:12:55;;;;;;;37.15;19.17;;;;;;;12.83;100.00;99734.69;5098843;28;20028;-61
2024/03/03 10:15:20;;;;;;;152.55;52.05;;;;;;;12.92;100.00;99736.28;5098944;28;20032;-62
2024/03/03 10:17:47;;;;;;;42.35;19.80;;;;;;;12.92;100.00;99733.63;5098679;28;20047;-62
2024/03/03 10:20:13;;;;;;;39.17;18.98;;;;;;;12.88;100.00;99724.34;5098405;28;20032;-62
2024/03/03 10:22:40;;;;;;;35.45;18.25;;;;;;;12.71;100.00;99722.81;5098371;28;20043;-64
2024/03/03 10:25:09;;;;;;;37.95;20.48;;;;;;;12.79;100.00;99723.56;5097756;28;20020;-63
2024/03/03 10:27:35;;;;;;;38.85;20.65;;;;;;;12.76;100.00;99723.09;5098720;28;20046;-62
2024/03/03 10:30:09;;;;;;;39.17;20.20;;;;;;;12.68;100.00;99721.34;5098709;28;20317;-62
2024/03/03 10:32:35;;;;;;;41.33;20.20;;;;;;;12.51;100.00;99714.47;5098577;28;20107;-63
2024/03/03 10:35:01;;;;;;;35.15;19.23;;;;;;;12.50;100.00;99711.97;5097860;28;20032;-64
2024/03/03 10:37:27;;;;;;;40.17;21.08;;;;;;;12.38;100.00;99714.19;5097294;28;20043;-64
2024/03/03 10:39:53;;;;;;;42.40;21.75;;;;;;;12.47;100.00;99707.81;5098159;28;20036;-62
2024/03/03 10:42:19;;;;;;;35.42;19.77;;;;;;;12.65;100.00;99710.22;5098302;28;20112;-62
2024/03/03 10:44:44;;;;;;;47.53;21.65;;;;;;;12.67;100.00;99703.75;5098327;28;20035;-62
2024/03/03 10:47:13;;;;;;;39.08;20.63;;;;;;;12.50;100.00;99706.66;5098315;28;20035;-61
2024/03/03 10:49:40;;;;;;;39.97;20.65;;;;;;;12.14;100.00;99691.25;5098141;28;20039;-63
2024/03/03 10:52:09;;;;;;;44.08;21.83;;;;;;;12.10;100.00;99701.38;5098545;28;20098;-62
2024/03/03 10:54:35;;;;;;;39.65;21.05;;;;;;;12.18;100.00;99695.19;5098149;28;20024;-61
2024/03/03 10:57:01;;;;;;;43.33;21.70;;;;;;;12.17;100.00;99688.22;5098289;28;20085;-61
2024/03/03 10:59:30;;;;;;;40.78;19.67;;;;;;;12.20;100.00;99693.19;5098257;28;20048;-60
2024/03/03 11:01:57;;;;;;;40.90;21.10;;;;;;;12.17;100.00;99688.22;5097665;28;20348;-60
2024/03/03 11:04:29;;;;;;;40.50;20.83;;;;;;;12.53;100.00;99690.38;5098039;28;20043;-60
2024/03/03 11:06:58;;;;;;;39.95;21.05;;;;;;;12.40;100.00;99673.16;5096835;28;20032;-61
2024/03/03 11:09:25;;;;;;;38.80;21.55;;;;;;;12.47;100.00;99678.59;5096594;28;20054;-62